KEFK

Northeast Kingdom International Airport

Newport, Vermont, USA
METAR KEFK 190315Z AUTO 00000KT 3SM -SN OVC019 M05/M07 A2989 RMK AO2 T10551070
Observed Flight Rules
Jan-19 @ 03:15 UTC (27 minutes ago) Marginal Visual Flight Rules
Wind Visibility Clouds Conditions
Calm 3 miles
  • Overcast at 1,900' AGL
  • Light Snow
Temperatures Readings
Current -6°C / 21°F
Dewpoint -7°C / 19°F
Humidity 93%
Altimeter 29.89" Hg
Pressure 1012 hPa
Elevation 284
METAR KEFK 190315Z AUTO 00000KT 3SM -SN OVC019 M05/M07 A2989 RMK AO2 T10551070
Observed Flight Rules
Jan-19 @ 03:15 UTC
(27 minutes ago)
MVFR
Wind Visibility
Calm 3 miles
Clouds
  • Overcast at 1,900' AGL
Conditions
  • Light Snow
Temperature Dewpoint
-6°C / 21°F -7°C / 19°F
Humidity Altimeter Pressure
93% 29.89" Hg 1012 hPa